Time;durP1;ratioP1;P1;durP2;ratioP2;P2;SDS_P1;SDS_P2;PMS_P1;PMS_P2;Temp;Humidity;BMP_temperature;BMP_pressure;BME280_temperature;BME280_humidity;BME280_pressure;Samples;Min_cycle;Max_cycle;Signal;HPM_P1;HPM_P2
2022/03/28 00:01:19;;;;;;;6.77;3.57;;;3.90;96.10;3.70;101618.00;;;;4983192;28;120208;-64
2022/03/28 00:03:45;;;;;;;8.27;4.47;;;3.90;96.30;3.60;101615.00;;;;4992463;28;93080;-63
2022/03/28 00:06:11;;;;;;;5.00;3.50;;;3.90;96.60;3.60;101620.00;;;;4995489;27;92030;-63
2022/03/28 00:08:38;;;;;;;4.17;3.50;;;3.80;96.80;3.60;101619.00;;;;4994132;28;123040;-63
2022/03/28 00:11:06;;;;;;;6.20;3.60;;;3.80;97.00;3.50;101609.00;;;;4995282;27;92859;-63
2022/03/28 00:13:33;;;;;;;6.10;3.63;;;3.80;97.30;3.50;101612.00;;;;4980189;27;93646;-63
2022/03/28 00:16:00;;;;;;;5.17;3.83;;;3.70;97.50;3.60;101615.00;;;;4975232;28;96103;-63
2022/03/28 00:18:26;;;;;;;5.83;3.27;;;3.80;97.80;3.60;101601.00;;;;4989036;28;93343;-64
2022/03/28 00:20:53;;;;;;;4.77;3.47;;;3.70;97.80;3.50;101598.00;;;;4986675;27;93406;-63
2022/03/28 00:23:23;;;;;;;4.90;3.40;;;3.80;97.80;3.50;101601.00;;;;4988623;28;92833;-63
2022/03/28 00:25:49;;;;;;;2.80;2.60;;;3.70;97.90;3.40;101600.00;;;;4994789;27;93083;-64
2022/03/28 00:28:15;;;;;;;4.30;3.00;;;3.70;98.00;3.40;101595.00;;;;4994878;28;99523;-63
2022/03/28 00:30:42;;;;;;;5.50;3.43;;;3.70;98.30;3.40;101596.00;;;;4993800;28;122892;-63
2022/03/28 00:33:08;;;;;;;6.20;3.17;;;3.60;98.40;3.30;101603.00;;;;4984737;28;92898;-64
2022/03/28 00:35:35;;;;;;;5.93;3.70;;;3.60;98.60;3.30;101609.00;;;;4979080;28;100924;-63
2022/03/28 00:38:04;;;;;;;7.20;3.07;;;3.60;98.80;3.30;101593.00;;;;4975948;28;97599;-64
2022/03/28 00:40:32;;;;;;;5.07;3.77;;;3.50;98.90;3.30;101598.00;;;;4977966;28;94766;-64
2022/03/28 00:43:03;;;;;;;3.97;3.03;;;3.50;99.20;3.30;101597.00;;;;4988858;28;92731;-63
2022/03/28 00:45:34;;;;;;;4.47;3.10;;;3.50;99.30;3.20;101583.00;;;;4998297;27;92966;-63
2022/03/28 00:48:01;;;;;;;4.40;3.57;;;3.50;99.50;3.20;101586.00;;;;4997955;27;108047;-63
2022/03/28 00:50:32;;;;;;;2.77;2.57;;;3.50;99.70;3.10;101580.00;;;;4989789;27;93568;-63
2022/03/28 00:52:59;;;;;;;3.47;3.00;;;3.40;99.80;3.10;101577.00;;;;4989775;28;92852;-63
2022/03/28 00:55:25;;;;;;;6.93;3.63;;;3.30;99.90;3.10;101572.00;;;;4998271;27;102225;-63
2022/03/28 00:57:51;;;;;;;3.33;2.77;;;3.40;99.90;3.10;101567.00;;;;4997912;28;111463;-63
2022/03/28 01:00:17;;;;;;;3.70;2.80;;;3.40;99.90;3.10;101567.00;;;;4996848;28;121662;-63
2022/03/28 01:02:43;;;;;;;3.40;3.10;;;3.40;99.90;3.10;101562.00;;;;4995084;28;102464;-63
2022/03/28 01:05:11;;;;;;;5.60;3.90;;;3.90;99.90;3.10;101558.00;;;;4978837;28;92818;-63
2022/03/28 01:07:41;;;;;;;5.53;3.17;;;3.40;99.90;3.10;101543.00;;;;4987641;28;93627;-64
2022/03/28 01:10:10;;;;;;;4.57;3.10;;;3.40;99.90;3.10;101549.00;;;;4997882;27;93706;-64
2022/03/28 01:12:37;;;;;;;4.77;2.47;;;3.30;99.90;3.00;101544.00;;;;4994813;28;92879;-64
2022/03/28 01:15:04;;;;;;;5.00;3.43;;;3.70;99.90;3.00;101529.00;;;;4998069;27;92818;-64
2022/03/28 01:20:15;;;;;;;3.17;2.87;;;3.20;99.90;2.80;101524.00;;;;4995844;27;92118;-63
2022/03/28 01:22:41;;;;;;;3.10;2.90;;;3.10;99.90;2.80;101517.00;;;;4997389;27;92586;-63
2022/03/28 01:25:08;;;;;;;7.00;4.13;;;3.00;99.90;2.80;101520.00;;;;4996916;28;109525;-63
2022/03/28 01:27:37;;;;;;;8.87;4.10;;;3.10;99.90;2.80;101521.00;;;;4998334;28;110648;-63
2022/03/28 01:30:04;;;;;;;5.13;3.50;;;3.10;99.90;2.70;101509.00;;;;4997466;27;93004;-63
2022/03/28 01:32:31;;;;;;;6.43;3.90;;;3.40;99.90;2.70;101514.00;;;;4979130;27;93013;-63
2022/03/28 01:34:56;;;;;;;6.30;3.40;;;2.90;99.90;2.70;101513.00;;;;4977429;28;92666;-67
2022/03/28 01:37:22;;;;;;;7.93;4.03;;;2.90;99.90;2.60;101524.00;;;;4976144;28;123396;-63
2022/03/28 01:39:48;;;;;;;5.53;3.77;;;2.90;99.90;2.60;101518.00;;;;4977384;28;93864;-63
2022/03/28 01:42:14;;;;;;;4.77;3.23;;;2.90;99.90;2.60;101506.00;;;;4976863;28;109409;-63
2022/03/28 01:44:40;;;;;;;5.23;3.40;;;2.80;99.90;2.50;101505.00;;;;4977850;28;92427;-64
2022/03/28 01:47:06;;;;;;;3.97;3.03;;;3.30;99.90;2.50;101497.00;;;;4991530;28;122646;-63
2022/03/28 01:49:32;;;;;;;5.90;3.43;;;3.60;99.90;2.50;101499.00;;;;4996064;27;92927;-63
2022/03/28 01:51:57;;;;;;;4.33;3.30;;;2.70;99.90;2.50;101499.00;;;;4978574;28;93682;-63
2022/03/28 01:54:23;;;;;;;4.13;3.63;;;2.70;99.90;2.50;101488.00;;;;4996707;28;107931;-64
2022/03/28 01:56:49;;;;;;;3.77;2.57;;;3.20;99.90;2.50;101497.00;;;;4996165;27;123171;-63
2022/03/28 01:59:14;;;;;;;4.17;2.60;;;2.70;99.90;2.40;101483.00;;;;4996638;28;122545;-63
2022/03/28 02:01:40;;;;;;;3.80;3.13;;;2.70;99.90;2.40;101490.00;;;;4996490;27;92998;-64
2022/03/28 02:04:06;;;;;;;3.40;3.13;;;2.70;99.90;2.40;101482.00;;;;4997801;28;92820;-63
2022/03/28 02:06:35;;;;;;;5.03;3.43;;;2.70;99.90;2.40;101487.00;;;;4994372;27;110369;-63
2022/03/28 02:09:02;;;;;;;4.30;3.20;;;2.60;99.90;2.30;101483.00;;;;4997282;27;93170;-63
2022/03/28 02:11:31;;;;;;;2.50;2.30;;;2.60;99.90;2.30;101490.00;;;;4997196;28;93124;-63
2022/03/28 02:13:56;;;;;;;3.57;2.50;;;2.60;99.90;2.30;101490.00;;;;4994008;28;92777;-63
2022/03/28 02:16:22;;;;;;;4.17;2.57;;;2.50;99.90;2.30;101486.00;;;;4984925;28;124471;-63
2022/03/28 02:18:48;;;;;;;5.20;3.00;;;2.50;99.90;2.20;101483.00;;;;4981932;28;122361;-63
2022/03/28 02:21:13;;;;;;;4.53;2.80;;;2.50;99.90;2.20;101487.00;;;;4975854;28;110715;-63
2022/03/28 02:23:39;;;;;;;5.47;3.67;;;2.60;99.90;2.20;101484.00;;;;4992471;28;109487;-63
2022/03/28 02:26:05;;;;;;;7.07;3.37;;;2.50;99.90;2.20;101480.00;;;;4985101;28;123921;-63
2022/03/28 02:28:31;;;;;;;4.93;3.27;;;2.40;99.90;2.20;101490.00;;;;4976885;28;93459;-63
2022/03/28 02:30:57;;;;;;;7.00;3.80;;;2.40;99.90;2.10;101476.00;;;;4975667;28;111721;-63
2022/03/28 02:33:23;;;;;;;4.67;3.00;;;2.40;99.90;2.10;101484.00;;;;4976586;28;91988;-63
2022/03/28 02:35:49;;;;;;;3.93;3.10;;;2.40;99.90;2.10;101474.00;;;;4976776;28;93036;-63
2022/03/28 02:38:15;;;;;;;3.87;3.07;;;2.40;99.90;2.10;101470.00;;;;4976146;28;122688;-63
2022/03/28 02:40:41;;;;;;;4.67;3.13;;;2.40;99.90;2.00;101466.00;;;;4975112;28;110529;-63
2022/03/28 02:43:06;;;;;;;4.17;3.17;;;2.30;99.90;2.00;101473.00;;;;4988709;28;92768;-63
2022/03/28 02:45:36;;;;;;;5.80;3.00;;;2.30;99.90;2.00;101465.00;;;;4995805;27;122849;-63
2022/03/28 02:48:03;;;;;;;4.70;2.83;;;2.30;99.90;1.90;101460.00;;;;4996192;27;93049;-64
2022/03/28 02:50:32;;;;;;;6.13;3.83;;;2.20;99.90;1.90;101466.00;;;;4988194;27;92790;-64
2022/03/28 02:52:57;;;;;;;3.73;2.97;;;2.20;99.90;1.90;101468.00;;;;4986859;28;92750;-64
2022/03/28 02:55:23;;;;;;;4.07;3.30;;;2.20;99.90;1.90;101463.00;;;;4994661;28;124043;-64
2022/03/28 02:57:49;;;;;;;5.27;2.83;;;2.20;99.90;1.90;101462.00;;;;4986123;27;100502;-62
2022/03/28 03:00:15;;;;;;;6.80;3.63;;;2.20;99.90;1.90;101463.00;;;;4976230;28;92905;-63
2022/03/28 03:02:43;;;;;;;5.97;3.77;;;2.20;99.90;1.90;101455.00;;;;4976026;28;100285;-63
2022/03/28 03:05:10;;;;;;;5.60;3.93;;;2.80;99.90;1.90;101458.00;;;;4975649;28;95062;-64
2022/03/28 03:07:36;;;;;;;4.40;2.67;;;2.10;99.90;1.80;101454.00;;;;4986957;28;94647;-63
2022/03/28 03:10:04;;;;;;;5.83;2.97;;;2.20;99.90;1.70;101452.00;;;;4996470;27;92904;-64
2022/03/28 03:12:29;;;;;;;4.30;3.07;;;2.10;99.90;1.70;101455.00;;;;4956239;28;100284;-63
2022/03/28 03:14:55;;;;;;;4.17;3.53;;;2.50;99.90;1.70;101451.00;;;;4971954;28;123039;-63
2022/03/28 03:17:21;;;;;;;4.83;2.13;;;2.00;99.90;1.60;101449.00;;;;4975590;28;122516;-64
2022/03/28 03:20:00;;;;;;;5.30;3.77;;;1.90;99.90;1.60;101442.00;;;;5042406;27;80893;-64
2022/03/28 03:22:26;;;;;;;4.07;3.40;;;1.90;99.90;1.60;101444.00;;;;5017701;27;81145;-63
2022/03/28 03:24:52;;;;;;;3.27;2.97;;;1.90;99.90;1.60;101445.00;;;;4997498;28;95372;-63
2022/03/28 03:27:18;;;;;;;3.23;2.93;;;1.90;99.90;1.60;101437.00;;;;4997319;27;107610;-63
2022/03/28 03:29:43;;;;;;;6.57;3.97;;;1.80;99.90;1.50;101447.00;;;;4997660;28;89065;-62
2022/03/28 03:32:10;;;;;;;4.53;3.10;;;1.80;99.90;1.40;101435.00;;;;4997397;27;111530;-63
2022/03/28 03:34:35;;;;;;;5.47;3.53;;;1.80;99.90;1.40;101445.00;;;;4997819;28;80864;-63
2022/03/28 03:37:02;;;;;;;4.10;3.67;;;1.70;99.90;1.30;101442.00;;;;4997701;27;108682;-63
2022/03/28 03:39:28;;;;;;;5.10;4.07;;;1.60;99.90;1.30;101443.00;;;;5006526;27;82209;-63
2022/03/28 03:41:54;;;;;;;4.43;3.70;;;1.30;99.90;1.20;101439.00;;;;5016073;27;84926;-63
2022/03/28 03:44:20;;;;;;;4.30;3.23;;;1.50;99.90;1.20;101437.00;;;;4996772;28;81141;-63
2022/03/28 03:46:47;;;;;;;3.70;3.40;;;1.50;99.90;1.20;101426.00;;;;5002625;27;98265;-63
2022/03/28 03:49:13;;;;;;;3.63;2.73;;;1.50;99.90;1.20;101436.00;;;;5015897;27;94903;-63
2022/03/28 03:51:39;;;;;;;5.07;3.17;;;1.50;99.90;1.20;101433.00;;;;4999643;27;82025;-64
2022/03/28 03:54:05;;;;;;;12.03;4.50;;;1.50;99.90;1.20;101427.00;;;;4997113;28;81132;-63
2022/03/28 03:56:31;;;;;;;8.00;4.07;;;1.50;99.90;1.20;101436.00;;;;4997543;28;81375;-63
2022/03/28 03:58:58;;;;;;;4.57;3.17;;;1.50;99.90;1.20;101433.00;;;;4996559;27;100292;-64
2022/03/28 04:01:26;;;;;;;3.50;2.60;;;1.50;99.90;1.20;101424.00;;;;4978557;28;85861;-63
2022/03/28 04:03:52;;;;;;;3.73;2.80;;;1.50;99.90;1.10;101427.00;;;;4996902;27;81223;-63
2022/03/28 04:06:18;;;;;;;3.67;2.83;;;1.40;99.90;1.10;101423.00;;;;4997372;28;81871;-63
2022/03/28 04:08:44;;;;;;;4.17;3.73;;;1.50;99.90;1.20;101431.00;;;;5013419;27;110637;-63
2022/03/28 04:11:09;;;;;;;3.30;2.90;;;1.40;99.90;1.10;101416.00;;;;5017699;27;81324;-63
2022/03/28 04:13:36;;;;;;;3.13;2.83;;;1.40;99.90;1.10;101424.00;;;;5015521;27;109664;-63
2022/03/28 04:16:03;;;;;;;4.87;3.23;;;1.40;99.90;1.10;101416.00;;;;5017845;27;81153;-63
2022/03/28 04:18:28;;;;;;;5.47;3.00;;;1.40;99.90;1.10;101407.00;;;;5008546;27;82504;-63
2022/03/28 04:20:55;;;;;;;8.30;4.43;;;1.40;99.90;1.10;101405.00;;;;5015774;27;81405;-63
2022/03/28 04:23:22;;;;;;;9.17;5.67;;;1.30;99.90;1.10;101410.00;;;;5015437;27;81257;-63
2022/03/28 04:25:48;;;;;;;6.60;5.13;;;1.40;99.90;1.10;101410.00;;;;5000266;27;81066;-63
2022/03/28 04:28:14;;;;;;;6.53;4.13;;;1.30;99.90;1.10;101411.00;;;;5000965;27;103231;-63
2022/03/28 04:30:39;;;;;;;3.70;3.40;;;1.40;99.90;1.00;101403.00;;;;5003630;27;89028;-63
2022/03/28 04:33:07;;;;;;;6.80;3.37;;;1.40;99.90;1.00;101403.00;;;;4996046;28;110606;-64
2022/03/28 04:35:33;;;;;;;5.07;4.17;;;1.30;99.90;1.00;101394.00;;;;4998844;28;81144;-63
2022/03/28 04:38:00;;;;;;;8.07;4.87;;;1.40;99.90;1.00;101402.00;;;;4957011;28;111155;-63
2022/03/28 04:40:26;;;;;;;6.67;4.17;;;1.30;99.90;1.00;101389.00;;;;5000200;28;80942;-63
2022/03/28 04:42:52;;;;;;;6.00;4.00;;;1.30;99.90;1.00;101390.00;;;;4994833;28;81580;-63
2022/03/28 04:45:18;;;;;;;5.30;3.87;;;1.30;99.90;0.90;101389.00;;;;4997273;28;81192;-63
2022/03/28 04:47:44;;;;;;;4.53;4.13;;;1.20;99.90;0.90;101390.00;;;;4996143;28;111876;-63
2022/03/28 04:50:10;;;;;;;8.80;4.60;;;1.20;99.90;0.90;101376.00;;;;4989160;28;105719;-64
2022/03/28 04:52:36;;;;;;;4.17;3.63;;;1.20;99.90;0.90;101381.00;;;;4991984;28;81817;-64
2022/03/28 04:55:04;;;;;;;6.03;4.33;;;1.20;99.90;0.80;101387.00;;;;4978704;28;109834;-63
2022/03/28 04:57:30;;;;;;;4.33;3.93;;;1.20;99.90;0.80;101381.00;;;;4980513;28;81970;-64
2022/03/28 04:59:57;;;;;;;4.27;3.87;;;1.10;99.90;0.90;101387.00;;;;4979317;28;105882;-63
2022/03/28 05:02:22;;;;;;;4.93;3.43;;;1.20;99.90;0.90;101382.00;;;;4985739;28;99421;-64
2022/03/28 05:04:48;;;;;;;4.43;3.73;;;1.10;99.90;0.90;101376.00;;;;4987660;28;81204;-64
2022/03/28 05:07:23;;;;;;;5.77;3.47;;;1.20;99.90;0.90;101368.00;;;;4980242;28;101332;-63
2022/03/28 05:09:49;;;;;;;4.57;3.77;;;1.20;99.90;1.00;101378.00;;;;4980928;28;81191;-64
2022/03/28 05:12:15;;;;;;;4.63;3.50;;;1.20;99.90;1.00;101375.00;;;;4980572;28;109277;-64
2022/03/28 05:14:40;;;;;;;7.60;4.23;;;1.30;99.90;1.10;101364.00;;;;4979391;28;108227;-64
2022/03/28 05:17:06;;;;;;;4.70;4.17;;;1.40;99.90;1.20;101371.00;;;;4982172;28;112602;-64
2022/03/28 05:19:31;;;;;;;6.40;4.70;;;1.40;99.90;1.20;101372.00;;;;4998285;28;110620;-64
2022/03/28 05:21:58;;;;;;;7.37;4.23;;;1.50;99.90;1.30;101369.00;;;;4999587;28;110767;-64
2022/03/28 05:24:23;;;;;;;3.97;3.57;;;1.60;99.90;1.40;101369.00;;;;4987484;28;81046;-64
2022/03/28 05:26:50;;;;;;;10.23;4.83;;;1.80;99.90;1.50;101375.00;;;;4980096;28;110155;-63
2022/03/28 05:29:15;;;;;;;5.37;3.80;;;1.70;99.90;1.60;101375.00;;;;4980586;28;92199;-63
2022/03/28 05:31:41;;;;;;;7.27;4.73;;;1.90;99.90;1.70;101366.00;;;;4980778;28;81431;-63
2022/03/28 05:34:07;;;;;;;7.50;5.40;;;1.80;99.90;1.80;101368.00;;;;4999582;28;110292;-63
2022/03/28 05:36:33;;;;;;;9.67;4.93;;;2.70;99.90;1.90;101362.00;;;;4997609;28;111010;-63
2022/03/28 05:38:58;;;;;;;6.37;5.47;;;2.10;99.90;2.00;101362.00;;;;4980315;28;99564;-64
2022/03/28 05:41:24;;;;;;;16.70;5.53;;;2.20;99.90;2.20;101361.00;;;;4979133;28;81073;-63
2022/03/28 05:43:50;;;;;;;15.23;5.57;;;2.40;99.90;2.40;101368.00;;;;4979518;28;108126;-64
2022/03/28 05:46:18;;;;;;;12.17;6.27;;;2.50;99.90;2.50;101371.00;;;;4979843;28;81156;-64
2022/03/28 05:48:44;;;;;;;10.80;7.47;;;2.60;99.90;2.60;101361.00;;;;4979949;28;81888;-63
2022/03/28 05:51:09;;;;;;;8.43;5.67;;;3.00;99.90;2.80;101370.00;;;;4991778;28;111674;-63
2022/03/28 05:53:35;;;;;;;21.63;10.27;;;3.40;99.90;3.00;101359.00;;;;4999213;28;80934;-63
2022/03/28 05:56:03;;;;;;;14.37;9.87;;;3.10;99.90;3.20;101365.00;;;;4995331;28;105878;-63
2022/03/28 05:58:29;;;;;;;19.23;12.73;;;3.30;99.90;3.50;101374.00;;;;4980966;28;82437;-63
2022/03/28 06:00:58;;;;;;;17.83;10.97;;;3.50;99.90;3.70;101364.00;;;;4986841;28;83287;-63
2022/03/28 06:03:24;;;;;;;14.57;8.03;;;3.80;99.90;4.00;101365.00;;;;4975388;28;83436;-64
2022/03/28 06:05:49;;;;;;;15.73;7.80;;;4.00;99.90;4.20;101374.00;;;;4978771;28;110137;-63
2022/03/28 06:08:15;;;;;;;11.37;6.70;;;4.30;99.90;4.40;101365.00;;;;4979880;28;110745;-63
2022/03/28 06:10:41;;;;;;;13.80;7.60;;;4.50;99.90;4.60;101369.00;;;;4979547;28;80891;-64
2022/03/28 06:13:08;;;;;;;11.37;6.83;;;4.70;99.90;4.90;101365.00;;;;4961018;28;81124;-63
2022/03/28 06:15:36;;;;;;;7.90;6.40;;;4.90;99.90;5.10;101355.00;;;;4979271;28;82105;-64
2022/03/28 06:18:06;;;;;;;5.77;4.80;;;5.10;99.90;5.40;101360.00;;;;4989964;28;81671;-63
2022/03/28 06:20:34;;;;;;;7.20;4.93;;;5.40;99.90;5.60;101356.00;;;;4997310;28;96570;-64
2022/03/28 06:23:02;;;;;;;7.67;5.20;;;5.90;99.90;5.90;101361.00;;;;4998649;28;81072;-64
2022/03/28 06:25:28;;;;;;;9.00;5.60;;;6.00;99.90;6.20;101355.00;;;;4985860;28;81902;-64
2022/03/28 06:27:54;;;;;;;14.10;6.50;;;6.20;99.90;6.50;101360.00;;;;4980013;28;102538;-64
2022/03/28 06:30:20;;;;;;;11.77;7.40;;;6.50;99.90;6.90;101347.00;;;;4995160;28;95233;-64
2022/03/28 06:32:46;;;;;;;10.07;5.83;;;7.30;99.90;7.20;101368.00;;;;4990318;28;80848;-63
2022/03/28 06:35:11;;;;;;;8.87;6.10;;;7.20;99.90;7.60;101351.00;;;;4979165;28;110624;-63
2022/03/28 06:37:37;;;;;;;7.57;5.97;;;7.50;99.90;7.80;101348.00;;;;4978312;28;105120;-64
2022/03/28 06:40:05;;;;;;;10.53;5.83;;;7.40;99.90;8.10;101350.00;;;;4978378;28;108326;-63
2022/03/28 06:42:32;;;;;;;7.70;5.20;;;8.00;99.90;8.40;101344.00;;;;4985380;28;81121;-64
2022/03/28 06:44:58;;;;;;;8.43;6.00;;;8.30;99.90;8.70;101342.00;;;;4998858;28;81933;-64
2022/03/28 06:47:25;;;;;;;10.00;5.83;;;8.60;99.90;9.00;101336.00;;;;4999005;28;81414;-64
2022/03/28 06:49:51;;;;;;;8.57;5.80;;;8.90;99.90;9.20;101334.00;;;;4998628;28;81947;-64
2022/03/28 06:52:17;;;;;;;8.60;4.93;;;9.10;99.90;9.50;101332.00;;;;4997697;27;108843;-64
2022/03/28 06:54:43;;;;;;;7.57;5.33;;;9.40;99.90;9.80;101331.00;;;;4997099;28;100364;-64
2022/03/28 06:57:09;;;;;;;8.53;5.10;;;9.70;99.90;10.10;101327.00;;;;5013106;27;81105;-64
2022/03/28 06:59:35;;;;;;;9.67;5.43;;;10.00;99.90;10.30;101325.00;;;;4998064;28;110587;-64
2022/03/28 07:02:00;;;;;;;9.23;4.60;;;10.20;99.90;10.60;101320.00;;;;5002056;27;107765;-63
2022/03/28 07:04:26;;;;;;;8.47;4.57;;;10.50;99.90;10.80;101322.00;;;;4998355;28;83833;-63
2022/03/28 07:06:52;;;;;;;7.87;4.70;;;10.70;99.90;11.10;101319.00;;;;4997877;28;110064;-64
2022/03/28 07:09:18;;;;;;;8.73;5.63;;;11.00;99.90;11.30;101320.00;;;;4996325;27;98405;-64
2022/03/28 07:11:45;;;;;;;6.50;4.80;;;11.20;99.60;11.50;101321.00;;;;4998673;28;81054;-64
2022/03/28 07:14:12;;;;;;;8.37;5.20;;;11.40;98.90;11.60;101327.00;;;;4998368;28;82378;-63
2022/03/28 07:16:37;;;;;;;9.40;4.97;;;11.60;98.00;11.80;101317.00;;;;4993551;28;81017;-65
2022/03/28 07:19:04;;;;;;;12.23;5.97;;;11.80;97.60;12.10;101315.00;;;;4977993;28;108480;-64
2022/03/28 07:21:31;;;;;;;7.93;5.13;;;12.00;96.90;12.30;101316.00;;;;4978760;28;80847;-63
2022/03/28 07:23:57;;;;;;;10.00;5.50;;;12.30;96.00;12.60;101312.00;;;;4983910;27;83913;-64
2022/03/28 07:26:23;;;;;;;6.63;4.90;;;12.50;95.20;12.80;101310.00;;;;4990863;28;81927;-64
2022/03/28 07:28:49;;;;;;;8.60;5.80;;;12.80;94.80;13.10;101315.00;;;;4979784;28;82473;-63
2022/03/28 07:31:15;;;;;;;8.40;6.13;;;13.00;93.20;13.20;101307.00;;;;4989955;28;82977;-63
2022/03/28 07:33:41;;;;;;;8.50;5.33;;;13.20;91.50;13.30;101306.00;;;;4996666;28;84300;-63
2022/03/28 07:36:08;;;;;;;8.73;6.03;;;13.30;90.80;13.40;101305.00;;;;4997029;28;101843;-64
2022/03/28 07:38:35;;;;;;;11.07;6.73;;;13.40;90.60;13.60;101309.00;;;;4996790;28;108407;-64
2022/03/28 07:41:05;;;;;;;11.10;6.97;;;13.60;90.20;13.80;101296.00;;;;4996908;28;99979;-64
2022/03/28 07:43:32;;;;;;;8.97;5.93;;;13.80;90.10;14.00;101296.00;;;;4997194;28;83988;-63
2022/03/28 07:45:58;;;;;;;8.57;5.80;;;14.00;88.50;14.20;101298.00;;;;4997744;28;82951;-63
2022/03/28 07:48:24;;;;;;;12.07;7.40;;;14.10;85.80;14.30;101299.00;;;;4996520;28;108816;-64
2022/03/28 07:50:51;;;;;;;14.30;7.33;;;14.30;83.60;14.30;101289.00;;;;4997491;28;96841;-64
2022/03/28 07:53:17;;;;;;;10.03;6.90;;;14.40;82.20;14.40;101290.00;;;;4996685;27;82681;-64
2022/03/28 07:55:43;;;;;;;11.43;7.83;;;14.50;81.60;14.60;101288.00;;;;4977372;28;106704;-64
2022/03/28 07:58:10;;;;;;;11.10;7.47;;;14.60;81.10;14.80;101289.00;;;;4989438;28;108085;-64
2022/03/28 08:00:37;;;;;;;9.87;7.13;;;14.80;80.40;15.00;101284.00;;;;4996135;28;108947;-64
2022/03/28 08:03:04;;;;;;;10.73;7.03;;;15.00;79.80;15.30;101287.00;;;;4997282;28;82874;-63
2022/03/28 08:05:30;;;;;;;9.82;6.68;;;15.20;78.80;15.50;101278.00;;;;4998180;27;83825;-64
2022/03/28 08:07:57;;;;;;;10.45;6.90;;;15.40;77.70;15.70;101271.00;;;;4999615;28;82922;-64
2022/03/28 08:10:24;;;;;;;11.95;7.32;;;15.70;75.80;15.90;101274.00;;;;5000467;28;100698;-64
2022/03/28 08:12:50;;;;;;;13.18;8.18;;;15.80;73.90;16.00;101265.00;;;;4986031;28;89971;-64
2022/03/28 08:15:19;;;;;;;13.52;7.00;;;16.00;72.20;16.10;101260.00;;;;4980794;28;82099;-63
2022/03/28 08:17:45;;;;;;;10.57;7.70;;;16.10;71.40;16.30;101262.00;;;;4971556;28;82961;-64
2022/03/28 08:20:12;;;;;;;11.02;7.88;;;16.20;70.80;16.40;101259.00;;;;4984276;28;86129;-63
2022/03/28 08:22:44;;;;;;;15.63;9.80;;;16.40;70.30;16.50;101249.00;;;;4997596;28;83941;-64
2022/03/28 08:25:10;;;;;;;10.60;8.07;;;16.50;67.70;16.50;101255.00;;;;4989570;28;84290;-64
2022/03/28 08:27:35;;;;;;;14.40;8.13;;;16.50;67.70;16.70;101245.00;;;;4980250;28;82694;-64
2022/03/28 08:30:02;;;;;;;15.10;8.02;;;16.70;67.10;16.80;101251.00;;;;4981214;28;108878;-63
2022/03/28 08:32:28;;;;;;;11.95;8.60;;;16.80;65.90;16.90;101247.00;;;;5000110;28;83421;-64
2022/03/28 08:34:54;;;;;;;16.08;8.75;;;16.90;65.70;17.10;101232.00;;;;4999299;28;111983;-63
2022/03/28 08:37:21;;;;;;;13.73;9.05;;;17.00;65.50;17.20;101235.00;;;;4999199;28;110027;-64
2022/03/28 08:39:49;;;;;;;15.18;9.52;;;17.20;63.90;17.20;101231.00;;;;5000499;28;82224;-64
2022/03/28 08:42:16;;;;;;;16.98;10.88;;;17.20;62.80;17.20;101230.00;;;;4999959;28;82845;-64
2022/03/28 08:44:42;;;;;;;12.07;8.07;;;17.20;62.30;17.20;101223.00;;;;4998398;28;84697;-64
2022/03/28 08:47:12;;;;;;;10.20;7.93;;;17.20;61.90;17.30;101226.00;;;;4991853;28;96270;-63
2022/03/28 08:49:38;;;;;;;12.63;8.50;;;17.30;62.00;17.30;101231.00;;;;4992363;28;108288;-65
2022/03/28 08:52:07;;;;;;;9.73;8.40;;;17.30;61.80;17.40;101225.00;;;;4993201;28;94756;-65
2022/03/28 08:54:34;;;;;;;13.25;9.95;;;17.40;61.50;17.50;101220.00;;;;4980152;28;82753;-64
2022/03/28 08:57:00;;;;;;;12.07;7.47;;;17.50;61.10;17.70;101214.00;;;;4981033;28;82720;-64
2022/03/28 08:59:26;;;;;;;12.43;7.47;;;17.60;61.30;17.90;101215.00;;;;5000858;28;82554;-65
2022/03/28 09:01:52;;;;;;;11.93;8.75;;;17.80;61.10;18.10;101211.00;;;;4995521;28;83885;-64
2022/03/28 09:04:17;;;;;;;11.27;8.20;;;18.00;60.40;18.20;101210.00;;;;4979497;28;83497;-63
2022/03/28 09:06:45;;;;;;;14.10;9.38;;;18.20;59.40;18.40;101204.00;;;;4980099;28;82880;-64
2022/03/28 09:09:22;;;;;;;9.90;6.85;;;18.70;59.20;18.60;101212.00;;;;4962676;28;82953;-63
2022/03/28 09:11:56;;;;;;;13.38;8.82;;;18.50;59.30;18.90;101209.00;;;;4990266;27;84893;-65
2022/03/28 09:14:29;;;;;;;12.93;8.98;;;18.70;58.00;18.90;101202.00;;;;5006383;27;82915;-63
2022/03/28 09:17:10;;;;;;;11.57;7.85;;;18.80;57.40;18.90;101195.00;;;;4979151;28;82953;-63
2022/03/28 09:19:59;;;;;;;9.77;8.13;;;18.80;57.10;19.00;101202.00;;;;4979080;28;82757;-63
2022/03/28 09:22:37;;;;;;;12.20;7.75;;;18.90;56.30;18.90;101193.00;;;;4979852;28;82858;-64
2022/03/28 09:25:14;;;;;;;10.88;7.32;;;18.90;55.80;18.90;101197.00;;;;4962129;28;86260;-63
2022/03/28 09:27:41;;;;;;;14.30;7.78;;;18.90;56.30;19.10;101193.00;;;;4978860;28;82785;-63
2022/03/28 09:30:10;;;;;;;7.47;6.15;;;18.90;56.40;19.40;101183.00;;;;4979754;28;82021;-63
2022/03/28 09:32:54;;;;;;;8.82;7.43;;;19.10;56.00;19.40;101189.00;;;;4960546;28;84477;-64
2022/03/28 09:35:26;;;;;;;10.95;7.30;;;19.30;55.60;19.60;101175.00;;;;4960714;28;83015;-63
2022/03/28 09:38:05;;;;;;;11.23;6.45;;;19.40;55.50;19.80;101181.00;;;;4993882;28;83695;-64
2022/03/28 09:40:49;;;;;;;12.32;8.13;;;19.50;55.30;20.00;101174.00;;;;4999131;28;82626;-64
2022/03/28 09:43:20;;;;;;;11.98;6.65;;;19.70;53.80;19.90;101172.00;;;;4999693;28;82993;-64
2022/03/28 09:45:53;;;;;;;10.15;6.72;;;19.70;54.10;20.00;101163.00;;;;4999325;28;82842;-63
2022/03/28 09:48:22;;;;;;;11.65;6.82;;;19.70;54.40;20.30;101164.00;;;;4981885;28;82504;-63
2022/03/28 09:50:57;;;;;;;9.25;6.55;;;20.00;53.90;20.50;101157.00;;;;4993561;28;82999;-64
2022/03/28 09:53:32;;;;;;;10.82;6.40;;;20.20;53.30;20.60;101152.00;;;;4998979;28;84096;-64
2022/03/28 09:56:08;;;;;;;11.77;6.70;;;20.30;53.20;20.90;101141.00;;;;4998744;27;89603;-64
2022/03/28 09:58:59;;;;;;;9.85;6.82;;;20.50;52.60;21.10;101154.00;;;;4998564;28;82612;-64
2022/03/28 10:01:38;;;;;;;9.90;6.78;;;20.80;52.20;21.50;101145.00;;;;4999150;28;82605;-64
2022/03/28 10:04:09;;;;;;;12.95;8.25;;;21.10;51.40;21.40;101141.00;;;;4997941;28;85098;-63
2022/03/28 10:06:37;;;;;;;9.48;6.65;;;21.10;50.20;21.30;101141.00;;;;4979220;28;107636;-64
2022/03/28 10:09:07;;;;;;;10.02;6.18;;;21.10;50.40;21.40;101136.00;;;;4979092;28;82606;-64
2022/03/28 10:11:36;;;;;;;10.95;6.55;;;21.10;50.30;21.40;101131.00;;;;4979593;28;88984;-64
2022/03/28 10:14:02;;;;;;;9.57;6.03;;;21.10;50.00;21.30;101130.00;;;;4977232;28;82682;-63
2022/03/28 10:16:28;;;;;;;12.98;6.63;;;21.10;50.20;21.30;101120.00;;;;4978372;28;110006;-63
2022/03/28 10:18:55;;;;;;;12.10;7.65;;;21.00;50.10;21.20;101120.00;;;;4979725;28;82791;-64
2022/03/28 10:21:31;;;;;;;8.88;6.60;;;21.00;50.30;21.40;101122.00;;;;4996540;28;109292;-64
2022/03/28 10:24:22;;;;;;;9.25;5.97;;;21.00;50.60;21.70;101127.00;;;;4997498;28;82755;-64
2022/03/28 10:26:53;;;;;;;10.55;6.85;;;21.30;50.60;21.80;101126.00;;;;4978740;28;83438;-64
2022/03/28 10:29:22;;;;;;;7.65;5.40;;;21.50;50.00;22.00;101131.00;;;;4978008;28;83569;-65
2022/03/28 10:32:08;;;;;;;9.30;5.75;;;21.60;50.10;22.30;101115.00;;;;4976406;28;82598;-64
2022/03/28 10:35:01;;;;;;;5.80;5.10;;;21.90;49.30;22.60;101108.00;;;;4993305;28;84182;-63
2022/03/28 10:37:40;;;;;;;9.98;6.63;;;22.20;48.70;22.60;101114.00;;;;4968929;28;85264;-64
2022/03/28 10:40:32;;;;;;;7.32;6.05;;;22.30;47.90;22.50;101115.00;;;;4978009;28;82565;-63
2022/03/28 10:43:09;;;;;;;9.43;6.50;;;22.20;47.60;22.50;101116.00;;;;4978118;28;82976;-63
2022/03/28 10:45:56;;;;;;;18.10;7.43;;;22.20;47.90;22.50;101113.00;;;;4977605;28;83772;-65
2022/03/28 10:48:46;;;;;;;9.27;6.53;;;22.20;47.70;22.30;101101.00;;;;4995666;28;82190;-64
2022/03/28 10:51:24;;;;;;;9.48;7.00;;;22.10;47.30;22.20;101103.00;;;;4997317;28;82644;-64
2022/03/28 10:53:57;;;;;;;9.82;5.82;;;21.90;47.70;22.20;101101.00;;;;4998572;28;82564;-62
2022/03/28 10:56:38;;;;;;;8.65;6.40;;;21.90;48.20;22.40;101084.00;;;;4974658;28;83838;-63
2022/03/28 10:59:11;;;;;;;8.27;5.75;;;22.00;48.40;22.80;101086.00;;;;4978262;28;82926;-64